Dibble, OK (73031)

9:41 PM CDT on August 22, 2014 (GMT -0500)
APRSWXNET Blanchard OK US | Change Station
CLOSE
Current Station
Personal Weather Station
Location: Blanchard, OK
Elevation: 1250 ft
Nearby Weather Stations

Elev 1250 ft 35.13 °N, 97.62 °W | Updated 39 minutes ago

Clear
Clear
90 °F
Feels Like 89 °F
N
7
Wind Variable Wind from SSE
Gusts 14.0 mph

Today
High -- | Low -- °F
--% Chance of Precip.
Yesterday
High -- | Low -- °F
Precip. -- in
6:55 AM 8:10 PM
Waning Crescent, 6% visible
Pressure 29.93 in
Visibility 10.0 miles
Clouds Clear
Heat Index 89 °F
Dew Point 59 °F
Humidity 36%
Rainfall 0.00 in
Snow Depth Not available.
UV 0 out of 12
Pollen 9.90 out of 12
Ozone Good
PM2.5 Moderate
Flu Activity Not available.
METAR KOUN 230235Z AUTO 15010G15KT 10SM CLR 30/17 A2993 RMK AO2

More Conditions Fewer Conditions

Pressure 29.93 in
Visibility 10.0 miles
Clouds Clear
Heat Index 89 °F
Dew Point 59 °F
Humidity 36%
Rainfall 0.00 in
Snow Depth Not available.
UV 0 out of 12
Pollen 9.90 out of 12
Ozone Good
PM2.5 Moderate
Flu Activity Not available.
METAR KOUN 230235Z AUTO 15010G15KT 10SM CLR 30/17 A2993 RMK AO2

More Conditions Fewer Conditions

10-Day Weather Forecast

Almanac

Astronomy

Aug. 22, 2014 Rise Set
Actual Time 6:55 AM CDT 8:10 PM CDT
Civil Twilight 6:29 AM CDT 8:36 PM CDT
Nautical Twilight 5:57 AM CDT 9:08 PM CDT
Astronomical Twilight 5:25 AM CDT 9:40 PM CDT
Moon 4:22 AM CDT (8/22) 6:17 PM CDT (8/22)
Length of Visible Light 14h 07m
Length of Day
13h 14m
Tomorrow will be 2m 2s shorter.
Waning Crescent, 6% of the Moon is Illuminated
Today
Waning Crescent
Aug 25
New
Sep 2
First Quarter
Sep 8
Full
Sep 15
Last Quarter

Today's Extremes

State Highs State Lows

Community

WunderPhotos

Upload Photos

1,746,348 photos uploaded!

WunderBlogs® & News

Nearby

Air Quality

  Air Quality AQ Index Pollutant
Yesterday Moderate
PM2.5
Yesterday Good
OZONE
Current Moderate
PM2.5
Current Good
OZONE
Friday Moderate
PM2.5
Friday Good
OZONE
Saturday Moderate
PM2.5
Saturday Good
OZONE
Sunday Moderate
PM2.5
Sunday Good
OZONE
Monday Moderate
PM2.5
Monday Good
OZONE

Snow Depth

Station Depth Elevation
No new snow has been reported.

Earthquake Activity

City Distance Mag. Time & Date
Boley, Oklahoma 68 miles 3.4 9:50 PM CDT
2014-08-17
Cherokee, Oklahoma 129 miles 3.8 8:25 PM CDT
2014-08-17
Medford, Oklahoma 126 miles 2.9 6:30 PM CDT
2014-08-17
Cherokee, Oklahoma 124 miles 2.6 11:50 AM CDT
2014-08-17
Minimum magnitude displayed is 2.5.

Coastal Water Temperatures

Place Temperature
No Stations Reporting

Nearby Weather Stations